createdAt,value
2019-04-16T00:02:06.822Z,12.53
2019-04-16T00:05:00.570Z,13.70
2019-04-16T00:07:51.628Z,15.83
2019-04-16T00:10:38.889Z,11.80
2019-04-16T00:13:27.351Z,14.33
2019-04-16T00:15:57.477Z,15.73
2019-04-16T00:18:26.997Z,14.73
2019-04-16T00:21:14.163Z,13.57
2019-04-16T00:24:08.550Z,17.07
2019-04-16T00:26:38.632Z,14.20
2019-04-16T00:29:08.007Z,17.40
2019-04-16T00:31:37.838Z,14.60
2019-04-16T00:34:07.133Z,11.27
2019-04-16T00:36:36.469Z,14.40
2019-04-16T00:39:07.144Z,10.83
2019-04-16T00:41:36.548Z,14.87
2019-04-16T00:44:06.283Z,12.50
2019-04-16T00:46:35.669Z,14.50
2019-04-16T00:49:04.976Z,13.27
2019-04-16T00:51:34.399Z,14.73
2019-04-16T00:54:03.783Z,16.03
2019-04-16T00:56:33.159Z,15.77
2019-04-16T00:59:02.675Z,16.87
2019-04-16T01:01:32.176Z,16.73
2019-04-16T01:04:01.485Z,19.23
2019-04-16T01:06:30.875Z,17.37
2019-04-16T01:09:00.331Z,20.53
2019-04-16T01:11:29.735Z,21.60
2019-04-16T01:13:59.116Z,20.63
2019-04-16T01:16:30.261Z,17.17
2019-04-16T01:18:59.528Z,17.03
2019-04-16T01:21:29.051Z,19.77
2019-04-16T01:23:58.475Z,17.27
2019-04-16T01:26:27.999Z,18.47
2019-04-16T01:29:10.409Z,21.77
2019-04-16T01:31:57.433Z,19.50
2019-04-16T01:34:35.293Z,17.13
2019-04-16T01:37:25.488Z,22.20
2019-04-16T01:39:52.862Z,20.90
2019-04-16T01:42:23.566Z,19.93
2019-04-16T01:44:53.306Z,19.63
2019-04-16T01:47:22.819Z,20.17
2019-04-16T01:49:52.252Z,19.37
2019-04-16T01:52:21.677Z,24.67
2019-04-16T01:54:51.459Z,22.33
2019-04-16T01:57:22.348Z,24.67
2019-04-16T01:59:51.657Z,21.27
2019-04-16T02:02:21.017Z,21.40
2019-04-16T02:04:52.115Z,22.13
2019-04-16T02:07:21.491Z,27.13
2019-04-16T02:09:50.791Z,26.60
2019-04-16T02:12:20.301Z,28.73
2019-04-16T02:14:50.456Z,28.97
2019-04-16T02:17:20.499Z,23.50
2019-04-16T02:19:50.030Z,22.60
2019-04-16T02:22:19.418Z,24.53
2019-04-16T02:24:48.929Z,22.87
2019-04-16T02:27:18.293Z,19.80
2019-04-16T02:29:47.775Z,19.23
2019-04-16T02:32:17.209Z,24.17
2019-04-16T02:34:46.592Z,24.50
2019-04-16T02:37:16.065Z,18.47
2019-04-16T02:39:48.160Z,20.23
2019-04-16T02:42:16.409Z,22.30
2019-04-16T02:44:50.050Z,21.87
2019-04-16T02:47:17.004Z,25.20
2019-04-16T02:49:46.307Z,25.67
2019-04-16T02:52:31.157Z,22.27
2019-04-16T02:55:31.913Z,20.27
2019-04-16T02:58:20.272Z,23.90
2019-04-16T03:01:20.399Z,22.23
2019-04-16T03:03:56.214Z,27.47
2019-04-16T03:06:24.622Z,23.77
2019-04-16T03:08:54.246Z,20.03
2019-04-16T03:11:23.848Z,23.87
2019-04-16T03:13:58.216Z,29.47
2019-04-16T03:16:31.504Z,22.67
2019-04-16T03:19:04.331Z,22.43
2019-04-16T03:21:33.775Z,25.27
2019-04-16T03:24:08.022Z,28.80
2019-04-16T03:26:36.670Z,32.33
2019-04-16T03:29:06.018Z,24.03
2019-04-16T03:31:35.451Z,21.87
2019-04-16T03:34:04.879Z,39.03
2019-04-16T03:36:34.495Z,29.97
2019-04-16T03:39:05.874Z,22.57
2019-04-16T03:41:35.372Z,21.53
2019-04-16T03:44:05.146Z,19.47
2019-04-16T03:46:34.675Z,25.07
2019-04-16T03:49:04.206Z,21.50
2019-04-16T03:51:35.535Z,25.93
2019-04-16T03:54:05.204Z,21.90
2019-04-16T03:56:35.137Z,31.57
2019-04-16T03:59:05.035Z,23.47
2019-04-16T04:01:35.787Z,25.03
2019-04-16T04:04:05.194Z,22.63
2019-04-16T04:06:36.507Z,20.80
2019-04-16T04:09:06.538Z,27.07
2019-04-16T04:11:40.954Z,34.43
2019-04-16T04:14:07.465Z,24.43
2019-04-16T04:16:36.752Z,26.07
2019-04-16T04:19:06.129Z,19.63
2019-04-16T04:21:35.611Z,23.97
2019-04-16T04:24:05.191Z,24.50
2019-04-16T04:26:34.650Z,24.20
2019-04-16T04:29:06.208Z,28.87
2019-04-16T04:31:35.083Z,28.40
2019-04-16T04:34:04.600Z,23.67
2019-04-16T04:36:33.863Z,24.33
2019-04-16T04:39:08.937Z,22.50
2019-04-16T04:41:36.732Z,23.57
2019-04-16T04:44:06.101Z,35.90
2019-04-16T04:46:35.527Z,28.13
2019-04-16T04:49:04.806Z,24.43
2019-04-16T04:51:36.475Z,26.57
2019-04-16T04:54:05.762Z,27.20
2019-04-16T04:56:37.351Z,33.33
2019-04-16T04:59:06.641Z,26.70
2019-04-16T05:01:36.152Z,29.57
2019-04-16T05:04:27.421Z,28.43
2019-04-16T05:06:59.870Z,23.53
2019-04-16T05:09:29.672Z,27.40
2019-04-16T05:12:00.344Z,23.03
2019-04-16T05:14:29.771Z,19.87
2019-04-16T05:16:59.192Z,26.33
2019-04-16T05:19:28.570Z,22.33
2019-04-16T05:21:58.036Z,22.47
2019-04-16T05:24:29.143Z,22.87
2019-04-16T05:26:58.400Z,29.97
2019-04-16T05:29:27.824Z,22.53
2019-04-16T05:31:57.661Z,21.97
2019-04-16T05:34:27.646Z,20.23
2019-04-16T05:36:57.207Z,29.13
2019-04-16T05:39:29.940Z,27.70
2019-04-16T05:41:59.354Z,30.90
2019-04-16T05:44:33.172Z,21.87
2019-04-16T05:46:59.787Z,25.87
2019-04-16T05:49:29.203Z,23.23
2019-04-16T05:52:02.884Z,21.43
2019-04-16T05:54:54.374Z,20.87
2019-04-16T05:57:29.608Z,25.83
2019-04-16T05:59:59.082Z,21.97
2019-04-16T06:02:36.921Z,21.40
2019-04-16T06:05:06.654Z,23.47
2019-04-16T06:07:38.104Z,26.60
2019-04-16T06:10:07.667Z,26.37
2019-04-16T06:12:53.011Z,22.63
2019-04-16T06:15:54.060Z,20.60
2019-04-16T06:19:00.625Z,22.43
2019-04-16T06:21:41.654Z,21.50
2019-04-16T06:24:26.076Z,22.30
2019-04-16T06:27:09.711Z,23.43
2019-04-16T06:29:57.607Z,19.13
2019-04-16T06:32:53.010Z,22.43
2019-04-16T06:35:43.537Z,25.53
2019-04-16T06:38:17.054Z,23.00
2019-04-16T06:41:07.957Z,21.37
2019-04-16T06:43:40.474Z,24.10
2019-04-16T06:46:39.480Z,24.70
2019-04-16T06:49:27.770Z,18.03
2019-04-16T06:52:16.039Z,21.93
2019-04-16T06:55:00.540Z,51.50
2019-04-16T06:58:04.769Z,28.13
2019-04-16T07:00:53.523Z,21.63
2019-04-16T07:03:50.679Z,24.60
2019-04-16T07:06:45.122Z,29.70
2019-04-16T07:09:25.761Z,19.47
2019-04-16T07:11:56.617Z,25.43
2019-04-16T07:14:26.203Z,24.90
2019-04-16T07:16:59.793Z,26.67
2019-04-16T07:19:26.807Z,26.87
2019-04-16T07:21:56.427Z,24.30
2019-04-16T07:24:30.082Z,23.57
2019-04-16T07:26:57.126Z,22.87
2019-04-16T07:29:32.780Z,23.97
2019-04-16T07:32:14.315Z,23.27
2019-04-16T07:34:51.891Z,24.47
2019-04-16T07:37:38.970Z,23.43
2019-04-16T07:40:25.035Z,27.67
2019-04-16T07:43:15.556Z,25.80
2019-04-16T07:45:49.334Z,21.20
2019-04-16T07:48:35.037Z,22.03
2019-04-16T07:51:21.863Z,21.63
2019-04-16T07:54:12.386Z,23.23
2019-04-16T07:56:43.801Z,22.45
2019-04-16T07:59:13.089Z,25.67
2019-04-16T08:01:44.087Z,21.57
2019-04-16T08:04:13.655Z,22.50
2019-04-16T08:06:46.229Z,27.42
2019-04-16T08:09:14.265Z,25.57
2019-04-16T08:11:43.801Z,20.77
2019-04-16T08:14:14.691Z,23.20
2019-04-16T08:16:47.651Z,22.70
2019-04-16T08:19:16.243Z,24.37
2019-04-16T08:21:45.796Z,21.87
2019-04-16T08:24:24.430Z,23.43
2019-04-16T08:26:51.326Z,18.77
2019-04-16T08:29:20.662Z,23.07
2019-04-16T08:31:50.426Z,18.80
2019-04-16T08:34:19.901Z,16.83
2019-04-16T08:36:49.364Z,15.50
2019-04-16T08:39:18.638Z,16.60
2019-04-16T08:41:52.149Z,20.43
2019-04-16T08:44:19.303Z,17.30
2019-04-16T08:46:48.633Z,17.57
2019-04-16T08:49:22.058Z,14.27
2019-04-16T08:51:49.262Z,13.83
2019-04-16T08:54:18.891Z,10.97
2019-04-16T08:56:48.362Z,14.07
2019-04-16T08:59:17.675Z,15.27
2019-04-16T09:01:47.074Z,14.27
2019-04-16T09:04:16.619Z,13.73
2019-04-16T09:06:47.215Z,11.57
2019-04-16T09:09:27.360Z,15.40
2019-04-16T09:12:00.039Z,15.30
2019-04-16T09:14:31.070Z,14.23
2019-04-16T09:17:09.965Z,20.67
2019-04-16T09:19:41.807Z,15.07
2019-04-16T09:22:15.731Z,14.13
2019-04-16T09:25:13.603Z,14.37
2019-04-16T09:27:43.483Z,15.53
2019-04-16T09:30:46.646Z,19.23
2019-04-16T09:33:23.398Z,15.53
2019-04-16T09:35:58.683Z,12.87
2019-04-16T09:38:39.368Z,10.40
2019-04-16T09:41:16.542Z,16.23
2019-04-16T09:43:48.482Z,13.17
2019-04-16T09:46:26.601Z,11.40
2019-04-16T09:48:50.157Z,15.33
2019-04-16T09:51:21.020Z,14.57
2019-04-16T09:53:50.816Z,17.90
2019-04-16T09:56:29.389Z,17.13
2019-04-16T09:59:00.104Z,18.20
2019-04-16T10:01:49.915Z,17.63
2019-04-16T10:04:20.311Z,7.23
2019-04-16T10:06:49.784Z,15.90
2019-04-16T10:09:21.746Z,10.80
2019-04-16T10:11:50.253Z,8.87
2019-04-16T10:14:19.676Z,8.73
2019-04-16T10:16:48.988Z,7.60
2019-04-16T10:19:21.041Z,7.47
2019-04-16T10:21:53.252Z,8.80
2019-04-16T10:24:38.341Z,22.17
2019-04-16T10:27:09.317Z,11.20
2019-04-16T10:29:38.693Z,8.93
2019-04-16T10:32:08.126Z,16.53
2019-04-16T10:34:37.391Z,9.40
2019-04-16T10:37:06.825Z,10.80
2019-04-16T10:40:01.590Z,8.57
2019-04-16T10:42:49.967Z,8.60
2019-04-16T10:45:36.839Z,16.13
2019-04-16T10:48:37.566Z,10.50
2019-04-16T10:51:24.680Z,13.30
2019-04-16T10:54:06.226Z,13.73
2019-04-16T10:56:56.828Z,10.67
2019-04-16T10:59:55.854Z,10.00
2019-04-16T11:02:39.187Z,10.70
2019-04-16T11:05:27.576Z,5.50
2019-04-16T11:07:57.575Z,9.33
2019-04-16T11:10:26.940Z,6.50
2019-04-16T11:12:56.580Z,7.10
2019-04-16T11:15:27.029Z,10.90
2019-04-16T11:17:56.504Z,6.60
2019-04-16T11:20:25.925Z,6.83
2019-04-16T11:22:55.261Z,5.93
2019-04-16T11:25:24.691Z,16.50
2019-04-16T11:27:54.262Z,7.67
2019-04-16T11:30:34.490Z,7.73
2019-04-16T11:33:03.889Z,8.43
2019-04-16T11:35:33.298Z,9.43
2019-04-16T11:38:02.936Z,7.53
2019-04-16T11:40:32.821Z,15.67
2019-04-16T11:43:02.434Z,6.30
2019-04-16T11:45:31.820Z,8.80
2019-04-16T11:48:01.318Z,14.33
2019-04-16T11:50:30.775Z,7.40
2019-04-16T11:53:00.189Z,9.17
2019-04-16T11:55:29.691Z,14.17
2019-04-16T11:57:59.165Z,6.07
2019-04-16T12:00:48.783Z,6.93
2019-04-16T12:03:40.161Z,8.23
2019-04-16T12:06:29.164Z,8.63
2019-04-16T12:09:06.782Z,11.07
2019-04-16T12:11:41.018Z,9.93
2019-04-16T12:14:34.354Z,9.83
2019-04-16T12:17:36.459Z,6.83
2019-04-16T12:20:31.612Z,6.13
2019-04-16T12:23:38.640Z,11.83
2019-04-16T12:26:19.360Z,8.87
2019-04-16T12:29:05.928Z,10.90
2019-04-16T12:32:12.516Z,12.33
2019-04-16T12:34:56.842Z,13.90
2019-04-16T12:37:44.173Z,12.83
2019-04-16T12:40:35.724Z,9.13
2019-04-16T12:43:22.636Z,10.13
2019-04-16T12:46:09.463Z,10.23
2019-04-16T12:48:56.825Z,13.77
2019-04-16T12:51:31.934Z,11.00
2019-04-16T12:54:09.934Z,8.77
2019-04-16T12:56:57.037Z,6.23
2019-04-16T12:59:32.704Z,5.37
2019-04-16T13:02:19.566Z,5.73
2019-04-16T13:05:06.740Z,4.67
2019-04-16T13:07:55.138Z,8.73
2019-04-16T13:10:49.538Z,6.17
2019-04-16T13:13:36.519Z,4.67
2019-04-16T13:16:10.670Z,5.90
2019-04-16T13:19:10.848Z,5.97
2019-04-16T13:21:50.084Z,13.50
2019-04-16T13:24:27.226Z,7.57
2019-04-16T13:26:59.573Z,4.93
2019-04-16T13:29:30.999Z,5.43
2019-04-16T13:32:00.496Z,5.27
2019-04-16T13:34:29.931Z,6.20
2019-04-16T13:37:00.606Z,7.77
2019-04-16T13:39:42.649Z,6.43
2019-04-16T13:42:12.102Z,6.73
2019-04-16T13:44:48.040Z,9.93
2019-04-16T13:47:17.523Z,5.60
2019-04-16T13:50:11.672Z,5.30
2019-04-16T13:52:41.221Z,5.80
2019-04-16T13:55:41.710Z,4.33
2019-04-16T13:58:34.364Z,3.93
2019-04-16T14:01:13.405Z,8.30
2019-04-16T14:03:42.932Z,9.63
2019-04-16T14:06:12.422Z,11.37
2019-04-16T14:08:41.733Z,6.27
2019-04-16T14:11:11.184Z,10.13
2019-04-16T14:13:41.987Z,7.30
2019-04-16T14:16:12.948Z,14.70
2019-04-16T14:18:42.645Z,4.90
2019-04-16T14:21:11.961Z,6.67
2019-04-16T14:23:41.255Z,4.17
2019-04-16T14:26:10.578Z,6.93
2019-04-16T14:28:51.298Z,6.27
2019-04-16T14:31:16.320Z,4.57
2019-04-16T14:33:56.830Z,6.77
2019-04-16T14:36:26.241Z,21.47
2019-04-16T14:38:58.309Z,7.37
2019-04-16T14:41:27.798Z,7.07
2019-04-16T14:44:03.844Z,8.53
2019-04-16T14:46:33.023Z,6.50
2019-04-16T14:49:02.520Z,9.90
2019-04-16T14:51:31.820Z,14.80
2019-04-16T14:54:06.715Z,14.73
2019-04-16T14:56:45.672Z,11.60
2019-04-16T14:59:33.489Z,9.03
2019-04-16T15:02:02.447Z,6.07
2019-04-16T15:04:58.121Z,6.07
2019-04-16T15:07:45.051Z,7.90
2019-04-16T15:10:25.550Z,7.27
2019-04-16T15:13:00.241Z,11.63
2019-04-16T15:15:39.116Z,10.05
2019-04-16T15:18:33.520Z,10.17
2019-04-16T15:21:20.735Z,12.10
2019-04-16T15:24:09.321Z,9.53
2019-04-16T15:27:00.569Z,9.17
2019-04-16T15:29:47.918Z,12.60
2019-04-16T15:32:45.504Z,15.33
2019-04-16T15:35:19.508Z,11.73
2019-04-16T15:38:10.730Z,8.17
2019-04-16T15:40:41.238Z,9.63
2019-04-16T15:43:28.061Z,12.80
2019-04-16T15:46:26.433Z,13.93
2019-04-16T15:49:10.174Z,12.93
2019-04-16T15:52:04.630Z,12.63
2019-04-16T15:54:45.369Z,14.30
2019-04-16T15:57:51.595Z,19.73
2019-04-16T16:00:40.008Z,12.03
2019-04-16T16:03:34.303Z,13.60
2019-04-16T16:06:20.411Z,10.00
2019-04-16T16:08:57.279Z,12.00
2019-04-16T16:11:32.389Z,13.30
2019-04-16T16:14:01.951Z,12.33
2019-04-16T16:16:41.578Z,11.37
2019-04-16T16:19:04.213Z,16.27
2019-04-16T16:21:33.707Z,14.33
2019-04-16T16:24:06.476Z,10.43
2019-04-16T16:26:34.781Z,16.63
2019-04-16T16:29:04.309Z,15.37
2019-04-16T16:31:35.747Z,11.60
2019-04-16T16:34:08.274Z,16.07
2019-04-16T16:36:36.545Z,41.17
2019-04-16T16:39:07.607Z,30.40
2019-04-16T16:41:37.008Z,12.97
2019-04-16T16:44:06.599Z,19.67
2019-04-16T16:46:57.410Z,15.33
2019-04-16T16:49:23.375Z,12.60
2019-04-16T16:52:10.619Z,12.13
2019-04-16T16:54:40.441Z,12.13
2019-04-16T16:57:34.800Z,9.13
2019-04-16T17:00:36.217Z,28.43
2019-04-16T17:03:29.226Z,14.03
2019-04-16T17:05:59.176Z,12.83
2019-04-16T17:08:30.190Z,28.10
2019-04-16T17:11:14.609Z,17.07
2019-04-16T17:13:31.142Z,14.40
2019-04-16T17:16:00.476Z,13.80
2019-04-16T17:18:30.001Z,16.47
2019-04-16T17:20:59.333Z,18.60
2019-04-16T17:23:29.657Z,15.87
2019-04-16T17:25:59.096Z,13.17
2019-04-16T17:28:28.605Z,16.27
2019-04-16T17:30:59.204Z,13.83
2019-04-16T17:33:28.662Z,12.63
2019-04-16T17:35:58.113Z,11.27
2019-04-16T17:38:27.567Z,12.97
2019-04-16T17:41:00.207Z,13.70
2019-04-16T17:44:00.297Z,13.77
2019-04-16T17:46:37.130Z,12.13
2019-04-16T17:49:21.626Z,19.63
2019-04-16T17:52:09.910Z,35.07
2019-04-16T17:54:43.300Z,37.67
2019-04-16T17:57:29.876Z,31.10
2019-04-16T18:00:16.693Z,32.73
2019-04-16T18:03:03.054Z,36.37
2019-04-16T18:05:37.578Z,36.20
2019-04-16T18:08:34.740Z,32.33
2019-04-16T18:11:13.626Z,20.80
2019-04-16T18:13:56.470Z,34.97
2019-04-16T18:16:29.951Z,33.77
2019-04-16T18:19:07.441Z,36.47
2019-04-16T18:21:43.531Z,35.83
2019-04-16T18:24:40.941Z,38.83
2019-04-16T18:27:29.407Z,34.47
2019-04-16T18:30:16.754Z,35.20
2019-04-16T18:33:17.456Z,31.90
2019-04-16T18:36:01.030Z,32.80
2019-04-16T18:39:03.183Z,40.37
2019-04-16T18:41:40.428Z,30.77
2019-04-16T18:44:30.087Z,30.23
2019-04-16T18:47:23.878Z,32.73
2019-04-16T18:49:55.767Z,27.00
2019-04-16T18:52:25.231Z,42.23
2019-04-16T18:54:54.716Z,42.80
2019-04-16T18:57:24.298Z,26.73
2019-04-16T18:59:53.868Z,23.27
2019-04-16T19:02:25.209Z,26.53
2019-04-16T19:04:54.687Z,24.53
2019-04-16T19:07:24.173Z,29.27
2019-04-16T19:09:53.675Z,17.60
2019-04-16T19:12:23.231Z,20.83
2019-04-16T19:14:52.777Z,16.23
2019-04-16T19:17:22.338Z,20.53
2019-04-16T19:19:52.012Z,17.53
2019-04-16T19:22:21.762Z,27.70
2019-04-16T19:24:51.078Z,19.57
2019-04-16T19:27:20.383Z,16.63
2019-04-16T19:29:49.928Z,20.90
2019-04-16T19:32:19.361Z,15.37
2019-04-16T19:34:48.657Z,14.83
2019-04-16T19:37:18.076Z,23.87
2019-04-16T19:39:47.785Z,17.93
2019-04-16T19:42:17.358Z,14.80
2019-04-16T19:44:46.782Z,18.87
2019-04-16T19:47:15.980Z,15.13
2019-04-16T19:49:45.504Z,19.00
2019-04-16T19:52:17.434Z,23.57
2019-04-16T19:54:47.536Z,18.27
2019-04-16T19:57:17.048Z,22.17
2019-04-16T19:59:47.328Z,14.13
2019-04-16T20:02:16.878Z,19.83
2019-04-16T20:04:46.198Z,19.67
2019-04-16T20:07:15.513Z,15.70
2019-04-16T20:09:44.974Z,20.70
2019-04-16T20:12:14.505Z,20.17
2019-04-16T20:14:43.987Z,17.37
2019-04-16T20:17:13.498Z,17.00
2019-04-16T20:19:58.732Z,19.50
2019-04-16T20:22:31.777Z,16.60
2019-04-16T20:25:01.265Z,16.67
2019-04-16T20:27:30.668Z,17.33
2019-04-16T20:30:00.243Z,16.23
2019-04-16T20:32:31.021Z,20.30
2019-04-16T20:35:02.319Z,16.87
2019-04-16T20:37:31.777Z,15.53
2019-04-16T20:40:01.684Z,17.20
2019-04-16T20:42:31.124Z,16.97
2019-04-16T20:45:00.833Z,15.50
2019-04-16T20:47:30.315Z,14.77
2019-04-16T20:50:03.525Z,14.73
2019-04-16T20:52:33.670Z,14.80
2019-04-16T20:55:02.131Z,13.93
2019-04-16T20:57:31.475Z,16.13
2019-04-16T21:00:00.978Z,17.53
2019-04-16T21:02:32.850Z,21.50
2019-04-16T21:05:04.408Z,13.93
2019-04-16T21:07:33.515Z,14.67
2019-04-16T21:10:04.506Z,17.20
2019-04-16T21:12:34.028Z,15.77
2019-04-16T21:15:03.401Z,19.10
2019-04-16T21:17:37.967Z,15.97
2019-04-16T21:20:04.324Z,21.57
2019-04-16T21:22:33.717Z,20.73
2019-04-16T21:25:03.272Z,16.60
2019-04-16T21:27:34.504Z,14.63
2019-04-16T21:30:11.483Z,15.53
2019-04-16T21:33:00.534Z,17.83
2019-04-16T21:35:36.805Z,15.27
2019-04-16T21:38:25.110Z,15.13
2019-04-16T21:40:56.367Z,17.57
2019-04-16T21:43:25.613Z,14.43
2019-04-16T21:45:55.217Z,19.80
2019-04-16T21:48:26.789Z,16.13
2019-04-16T21:50:55.980Z,18.20
2019-04-16T21:53:27.877Z,11.53
2019-04-16T21:55:56.560Z,17.93
2019-04-16T21:58:25.977Z,14.60
2019-04-16T22:01:12.964Z,20.70
2019-04-16T22:03:43.347Z,13.33
2019-04-16T22:06:12.694Z,16.60
2019-04-16T22:08:42.117Z,17.77
2019-04-16T22:11:12.009Z,14.93
2019-04-16T22:13:42.080Z,19.20
2019-04-16T22:16:11.575Z,20.83
2019-04-16T22:18:41.540Z,13.10
2019-04-16T22:21:11.742Z,22.83
2019-04-16T22:23:41.205Z,12.33
2019-04-16T22:26:11.091Z,13.67
2019-04-16T22:28:44.128Z,13.33
2019-04-16T22:31:11.802Z,13.57
2019-04-16T22:33:41.294Z,14.27
2019-04-16T22:36:10.770Z,17.73
2019-04-16T22:38:41.735Z,19.77
2019-04-16T22:41:20.417Z,16.03
2019-04-16T22:44:20.567Z,22.17
2019-04-16T22:46:56.339Z,16.20
2019-04-16T22:49:25.657Z,22.60
2019-04-16T22:51:55.025Z,18.10
2019-04-16T22:54:24.581Z,21.00
2019-04-16T22:57:03.444Z,19.07
2019-04-16T22:59:32.948Z,18.97
2019-04-16T23:02:04.794Z,18.77
2019-04-16T23:04:34.311Z,19.83
2019-04-16T23:07:07.108Z,18.03
2019-04-16T23:09:34.892Z,20.67
2019-04-16T23:12:04.409Z,22.07
2019-04-16T23:14:34.943Z,18.23
2019-04-16T23:17:05.461Z,20.97
2019-04-16T23:19:34.844Z,22.13
2019-04-16T23:22:04.351Z,16.67
2019-04-16T23:24:33.670Z,18.40
2019-04-16T23:27:05.673Z,19.10
2019-04-16T23:29:34.182Z,19.57
2019-04-16T23:32:03.655Z,13.90
2019-04-16T23:34:34.929Z,20.67
2019-04-16T23:37:04.373Z,15.53
2019-04-16T23:39:36.459Z,20.27
2019-04-16T23:42:04.877Z,19.17
2019-04-16T23:44:54.619Z,17.87
2019-04-16T23:47:42.903Z,17.70
2019-04-16T23:50:44.265Z,21.63
2019-04-16T23:53:09.520Z,21.40
2019-04-16T23:56:04.298Z,18.67
2019-04-16T23:58:48.294Z,17.90
